Back to top

Dickinson, ND weather

Theodore Roosevelt Regional Airport, Dickinson, ND: 7/02/2020 13:56
Visibility10 statute milessun with broken clouds
View 7-Day Forecast
Area Summary
Sky/CloudsBroken at 5000ft, Broken at 6000ft
Weather [last 24 hours]None
Pressure29.9 in.Hg (1013 hPa)
Dew Point63 °F (17.2 °C)
Relative Humidity47.9 %
Temperature84.9 °F (29.4 °C)red thermometer
Reading TimeMinimum to Maximum Temperature
6-hr ending 7/2@11:5661 °F to 82.9 °F (16.1 °C to 28.3 °C)
6-hr ending 7/2@05:5657 °F to 63 °F (13.9 °C to 17.2 °C)
6-hr ending 7/1@23:5659 °F to 80.1 °F (15 °C to 26.7 °C)
6-hr ending 7/1@17:5675.9 °F to 81 °F (24.4 °C to 27.2 °C)
24-hr ending 7/2@00:5650 °F to 81 °F (10 °C to 27.2 °C)
Wind3.45 MPH (3 KT) green arrow with no specific direction
Wind FromVariable (VRB Degrees)
Twilight Begins04:21Sunshine Yesterday
Sunrise05:00N/A
Sunset20:50
Twilight Ends21:30
METARKDIK 021956Z AUTO VRB03KT 10SM BKN050 BKN060 29/17 A2990 RMK AO2 SLP107 T02940172
Tags: